createdAt,value
2023-05-05T00:01:09.867Z,4.85
2023-05-05T00:03:38.593Z,5.20
2023-05-05T00:06:11.040Z,4.90
2023-05-05T00:08:38.087Z,5.28
2023-05-05T00:11:05.104Z,5.25
2023-05-05T00:13:32.064Z,4.47
2023-05-05T00:16:00.248Z,5.15
2023-05-05T00:18:30.399Z,5.43
2023-05-05T00:21:00.221Z,4.82
2023-05-05T00:23:31.366Z,5.28
2023-05-05T00:25:58.383Z,5.22
2023-05-05T00:28:28.456Z,4.88
2023-05-05T00:30:58.481Z,4.57
2023-05-05T00:33:28.406Z,4.85
2023-05-05T00:36:01.352Z,4.78
2023-05-05T00:38:32.162Z,4.60
2023-05-05T00:43:32.581Z,4.72
2023-05-05T00:46:04.544Z,4.90
2023-05-05T00:48:32.636Z,4.97
2023-05-05T00:51:08.373Z,5.18
2023-05-05T00:53:45.146Z,4.75
2023-05-05T00:56:17.217Z,5.70
2023-05-05T00:58:52.078Z,5.57
2023-05-05T01:01:20.283Z,4.93
2023-05-05T01:03:50.190Z,5.13
2023-05-05T01:06:35.578Z,4.90
2023-05-05T01:09:34.004Z,4.90
2023-05-05T01:12:15.283Z,5.10
2023-05-05T01:14:53.344Z,4.70
2023-05-05T01:17:23.818Z,4.80
2023-05-05T01:20:05.732Z,4.82
2023-05-05T01:22:42.868Z,5.38
2023-05-05T01:25:38.242Z,5.10
2023-05-05T01:28:04.953Z,5.20
2023-05-05T01:31:10.428Z,5.38
2023-05-05T01:33:46.231Z,5.25
2023-05-05T01:36:22.787Z,5.43
2023-05-05T01:38:55.329Z,4.68
2023-05-05T01:41:28.623Z,5.35
2023-05-05T01:43:57.322Z,4.97
2023-05-05T01:46:27.399Z,5.63
2023-05-05T01:48:55.211Z,5.00
2023-05-05T01:51:24.332Z,5.15
2023-05-05T01:53:53.047Z,5.35
2023-05-05T01:56:20.646Z,5.20
2023-05-05T01:58:50.959Z,5.30
2023-05-05T02:01:19.185Z,5.18
2023-05-05T02:03:47.852Z,5.00
2023-05-05T02:06:15.138Z,5.05
2023-05-05T02:08:42.215Z,5.40
2023-05-05T02:11:10.096Z,5.78
2023-05-05T02:13:39.016Z,5.55
2023-05-05T02:16:06.374Z,5.03
2023-05-05T02:18:35.876Z,5.07
2023-05-05T02:21:03.554Z,5.25
2023-05-05T02:23:30.705Z,5.78
2023-05-05T02:26:01.034Z,5.32
2023-05-05T02:28:35.429Z,5.25
2023-05-05T02:31:02.893Z,5.47
2023-05-05T02:33:33.444Z,5.57
2023-05-05T02:36:11.218Z,5.47
2023-05-05T02:38:49.592Z,5.45
2023-05-05T02:41:18.727Z,5.55
2023-05-05T02:43:46.470Z,5.00
2023-05-05T02:46:13.461Z,6.72
2023-05-05T02:48:43.713Z,5.00
2023-05-05T02:51:10.712Z,5.90
2023-05-05T02:53:38.414Z,5.93
2023-05-05T02:56:20.986Z,5.38
2023-05-05T02:58:54.726Z,5.68
2023-05-05T03:01:55.555Z,6.03
2023-05-05T03:04:36.693Z,5.70
2023-05-05T03:07:29.791Z,5.10
2023-05-05T03:10:10.318Z,6.60
2023-05-05T03:12:58.991Z,5.93
2023-05-05T03:15:46.322Z,5.35
2023-05-05T03:18:21.956Z,5.13
2023-05-05T03:21:00.236Z,5.80
2023-05-05T03:23:38.961Z,5.43
2023-05-05T03:26:21.249Z,5.43
2023-05-05T03:28:53.993Z,5.28
2023-05-05T03:31:28.411Z,5.40
2023-05-05T03:33:58.554Z,6.03
2023-05-05T03:36:30.134Z,5.55
2023-05-05T03:38:58.776Z,5.72
2023-05-05T03:41:28.364Z,5.85
2023-05-05T03:43:55.257Z,5.80
2023-05-05T03:46:22.406Z,5.93
2023-05-05T03:48:49.548Z,5.93
2023-05-05T03:51:16.435Z,5.60
2023-05-05T03:53:47.020Z,5.57
2023-05-05T03:56:14.180Z,6.10
2023-05-05T03:58:41.291Z,5.30
2023-05-05T04:01:08.521Z,5.60
2023-05-05T04:03:35.807Z,6.10
2023-05-05T04:06:03.064Z,6.18
2023-05-05T04:08:33.316Z,6.70
2023-05-05T04:11:02.747Z,6.72
2023-05-05T04:13:31.130Z,6.53
2023-05-05T04:15:59.781Z,7.00
2023-05-05T04:18:29.472Z,6.55
2023-05-05T04:20:56.440Z,7.18
2023-05-05T04:23:23.398Z,6.00
2023-05-05T04:25:50.835Z,5.95
2023-05-05T04:28:20.976Z,6.07
2023-05-05T04:30:48.844Z,6.20
2023-05-05T04:33:15.793Z,7.35
2023-05-05T04:35:42.628Z,6.75
2023-05-05T04:38:09.750Z,6.47
2023-05-05T04:40:43.288Z,7.20
2023-05-05T04:43:11.144Z,6.47
2023-05-05T04:45:38.291Z,6.80
2023-05-05T04:48:05.932Z,6.72
2023-05-05T04:50:33.984Z,7.32
2023-05-05T04:53:00.914Z,6.95
2023-05-05T04:55:28.535Z,6.50
2023-05-05T04:57:56.644Z,6.93
2023-05-05T05:00:25.865Z,7.18
2023-05-05T05:02:54.999Z,6.30
2023-05-05T05:05:22.017Z,6.75
2023-05-05T05:07:49.094Z,6.80
2023-05-05T05:10:15.937Z,6.85
2023-05-05T05:12:42.791Z,6.90
2023-05-05T05:15:11.056Z,7.00
2023-05-05T05:17:38.426Z,7.20
2023-05-05T05:20:09.161Z,7.10
2023-05-05T05:22:38.719Z,7.72
2023-05-05T05:25:09.024Z,7.53
2023-05-05T05:27:36.942Z,6.85
2023-05-05T05:30:04.279Z,7.60
2023-05-05T05:32:32.832Z,7.00
2023-05-05T05:34:59.747Z,7.32
2023-05-05T05:37:31.056Z,7.60
2023-05-05T05:39:59.187Z,8.25
2023-05-05T05:42:28.332Z,7.70
2023-05-05T05:44:55.213Z,8.30
2023-05-05T05:47:22.009Z,7.47
2023-05-05T05:49:52.026Z,9.25
2023-05-05T05:52:19.872Z,9.75
2023-05-05T05:54:46.897Z,9.68
2023-05-05T05:57:13.753Z,10.05
2023-05-05T05:59:40.610Z,9.55
2023-05-05T06:02:08.252Z,10.02
2023-05-05T06:04:35.834Z,9.40
2023-05-05T06:07:02.813Z,10.07
2023-05-05T06:09:29.831Z,9.35
2023-05-05T06:11:56.596Z,9.25
2023-05-05T06:14:23.342Z,9.60
2023-05-05T06:16:52.798Z,9.35
2023-05-05T06:19:26.562Z,9.60
2023-05-05T06:21:54.265Z,10.65
2023-05-05T06:24:21.460Z,10.27
2023-05-05T06:26:48.384Z,9.07
2023-05-05T06:29:15.333Z,9.88
2023-05-05T06:31:42.265Z,8.52
2023-05-05T06:34:09.119Z,9.35
2023-05-05T06:36:36.059Z,10.13
2023-05-05T06:39:02.747Z,9.75
2023-05-05T06:41:29.482Z,9.75
2023-05-05T06:43:56.387Z,10.10
2023-05-05T06:46:23.182Z,9.30
2023-05-05T06:48:50.105Z,9.40
2023-05-05T06:51:16.869Z,10.45
2023-05-05T06:53:43.660Z,10.77
2023-05-05T06:56:11.410Z,9.93
2023-05-05T06:58:38.170Z,9.32
2023-05-05T07:01:05.229Z,9.18
2023-05-05T07:03:32.166Z,9.32
2023-05-05T07:05:58.903Z,9.20
2023-05-05T07:08:25.737Z,10.02
2023-05-05T07:10:52.438Z,10.25
2023-05-05T07:13:19.379Z,10.23
2023-05-05T07:15:46.676Z,9.80
2023-05-05T07:18:14.322Z,10.23
2023-05-05T07:20:41.282Z,10.13
2023-05-05T07:23:08.162Z,10.80
2023-05-05T07:25:35.115Z,9.80
2023-05-05T07:28:01.910Z,9.70
2023-05-05T07:30:28.778Z,10.05
2023-05-05T07:32:56.720Z,9.85
2023-05-05T07:35:23.692Z,10.20
2023-05-05T07:37:51.256Z,10.60
2023-05-05T07:40:18.168Z,10.15
2023-05-05T07:42:45.422Z,9.50
2023-05-05T07:45:12.304Z,10.38
2023-05-05T07:47:40.520Z,10.18
2023-05-05T07:50:08.567Z,8.70
2023-05-05T07:52:46.867Z,9.38
2023-05-05T07:55:16.925Z,9.15
2023-05-05T07:57:47.756Z,9.20
2023-05-05T08:00:19.516Z,8.27
2023-05-05T08:02:47.950Z,8.13
2023-05-05T08:05:18.677Z,8.52
2023-05-05T08:07:48.928Z,7.28
2023-05-05T08:10:19.324Z,8.80
2023-05-05T08:12:46.494Z,8.07
2023-05-05T08:15:13.397Z,8.30
2023-05-05T08:17:47.802Z,7.95
2023-05-05T08:20:15.729Z,8.50
2023-05-05T08:22:43.236Z,8.13
2023-05-05T08:25:13.247Z,8.38
2023-05-05T08:27:41.439Z,8.95
2023-05-05T08:30:09.180Z,7.70
2023-05-05T08:32:36.290Z,7.03
2023-05-05T08:35:07.061Z,7.57
2023-05-05T08:37:34.275Z,6.93
2023-05-05T08:40:01.068Z,7.43
2023-05-05T08:42:37.194Z,7.70
2023-05-05T08:45:10.782Z,7.40
2023-05-05T08:47:43.207Z,7.53
2023-05-05T08:50:19.543Z,6.80
2023-05-05T08:53:02.083Z,7.55
2023-05-05T08:55:34.436Z,6.95
2023-05-05T08:58:04.159Z,7.65
2023-05-05T09:00:35.333Z,6.63
2023-05-05T09:03:09.229Z,6.18
2023-05-05T09:05:55.645Z,6.97
2023-05-05T09:08:24.801Z,5.57
2023-05-05T09:10:54.415Z,6.40
2023-05-05T09:13:28.786Z,6.80
2023-05-05T09:16:13.645Z,6.63
2023-05-05T09:18:49.380Z,5.97
2023-05-05T09:21:27.170Z,6.70
2023-05-05T09:24:11.749Z,5.65
2023-05-05T09:26:44.850Z,5.70
2023-05-05T09:29:40.844Z,6.30
2023-05-05T09:32:14.609Z,5.80
2023-05-05T09:34:46.419Z,6.80
2023-05-05T09:37:33.378Z,5.30
2023-05-05T09:40:01.763Z,5.07
2023-05-05T09:42:51.959Z,4.47
2023-05-05T09:45:28.116Z,4.32
2023-05-05T09:48:08.526Z,3.53
2023-05-05T09:51:01.301Z,3.85
2023-05-05T09:53:42.857Z,4.60
2023-05-05T09:56:12.756Z,3.63
2023-05-05T09:58:48.709Z,3.83
2023-05-05T10:01:24.484Z,3.45
2023-05-05T10:03:53.902Z,3.92
2023-05-05T10:06:50.696Z,4.22
2023-05-05T10:09:32.226Z,4.60
2023-05-05T10:12:15.986Z,4.15
2023-05-05T10:14:47.429Z,4.30
2023-05-05T10:17:26.874Z,3.58
2023-05-05T10:20:05.907Z,3.53
2023-05-05T10:22:44.462Z,3.05
2023-05-05T10:25:26.691Z,3.00
2023-05-05T10:28:04.530Z,3.95
2023-05-05T10:30:44.784Z,3.95
2023-05-05T10:36:04.390Z,3.83
2023-05-05T10:38:31.876Z,3.42
2023-05-05T10:41:05.120Z,3.45
2023-05-05T10:43:43.985Z,4.05
2023-05-05T10:46:14.649Z,4.78
2023-05-05T10:48:54.040Z,4.85
2023-05-05T10:51:40.984Z,4.90
2023-05-05T10:54:45.048Z,4.45
2023-05-05T10:57:22.448Z,4.28
2023-05-05T11:00:15.040Z,4.93
2023-05-05T11:02:44.670Z,6.47
2023-05-05T11:05:24.373Z,5.70
2023-05-05T11:08:32.901Z,5.35
2023-05-05T11:11:04.944Z,4.80
2023-05-05T11:13:35.165Z,4.10
2023-05-05T11:16:08.679Z,4.70
2023-05-05T11:18:45.239Z,4.35
2023-05-05T11:21:18.482Z,5.03
2023-05-05T11:24:06.104Z,6.53
2023-05-05T11:27:08.109Z,3.95
2023-05-05T11:30:11.154Z,5.72
2023-05-05T11:32:44.377Z,4.75
2023-05-05T11:35:15.780Z,4.82
2023-05-05T11:38:01.808Z,4.57
2023-05-05T11:40:35.056Z,4.45
2023-05-05T11:43:20.832Z,4.72
2023-05-05T11:46:16.101Z,4.20
2023-05-05T11:49:16.590Z,4.70
2023-05-05T11:51:59.329Z,4.40
2023-05-05T11:54:36.823Z,4.45
2023-05-05T11:57:08.263Z,3.95
2023-05-05T12:00:13.063Z,4.15
2023-05-05T12:02:43.008Z,4.20
2023-05-05T12:05:21.702Z,3.65
2023-05-05T12:08:03.781Z,3.60
2023-05-05T12:10:38.595Z,3.38
2023-05-05T12:13:19.040Z,3.37
2023-05-05T12:15:50.662Z,3.40
2023-05-05T12:18:21.798Z,4.35
2023-05-05T12:21:01.807Z,5.75
2023-05-05T12:23:41.359Z,3.63
2023-05-05T12:26:10.290Z,4.07
2023-05-05T12:28:53.950Z,3.53
2023-05-05T12:31:47.872Z,2.83
2023-05-05T12:34:18.910Z,3.53
2023-05-05T12:36:55.741Z,3.45
2023-05-05T12:39:23.880Z,3.50
2023-05-05T12:42:06.197Z,3.03
2023-05-05T12:45:03.571Z,3.55
2023-05-05T12:47:42.391Z,2.95
2023-05-05T12:50:15.459Z,2.83
2023-05-05T12:53:03.171Z,4.65
2023-05-05T12:55:48.234Z,3.20
2023-05-05T12:58:31.808Z,2.83
2023-05-05T13:01:18.260Z,3.22
2023-05-05T13:04:17.509Z,2.85
2023-05-05T13:06:51.720Z,2.75
2023-05-05T13:09:50.441Z,2.83
2023-05-05T13:12:26.100Z,2.72
2023-05-05T13:14:54.870Z,2.88
2023-05-05T13:17:26.914Z,2.53
2023-05-05T13:19:54.022Z,2.83
2023-05-05T13:22:30.154Z,3.17
2023-05-05T13:25:10.205Z,2.90
2023-05-05T13:27:50.721Z,2.58
2023-05-05T13:30:24.419Z,3.03
2023-05-05T13:32:59.033Z,2.47
2023-05-05T13:35:37.095Z,2.92
2023-05-05T13:38:22.167Z,2.75
2023-05-05T13:41:00.930Z,2.75
2023-05-05T13:43:40.138Z,2.78
2023-05-05T13:46:20.170Z,2.88
2023-05-05T13:49:01.838Z,2.88
2023-05-05T13:54:40.929Z,2.95
2023-05-05T13:57:58.427Z,2.60
2023-05-05T14:00:30.152Z,2.38
2023-05-05T14:03:09.472Z,2.50
2023-05-05T14:05:37.815Z,3.80
2023-05-05T14:08:20.165Z,2.78
2023-05-05T14:10:53.105Z,2.50
2023-05-05T14:13:41.951Z,2.67
2023-05-05T14:16:09.347Z,2.78
2023-05-05T14:19:30.167Z,2.60
2023-05-05T14:22:17.786Z,2.70
2023-05-05T14:25:02.642Z,2.25
2023-05-05T14:27:40.765Z,2.58
2023-05-05T14:30:18.071Z,2.35
2023-05-05T14:33:00.770Z,2.20
2023-05-05T14:35:47.260Z,2.22
2023-05-05T14:38:44.077Z,2.05
2023-05-05T14:41:17.620Z,2.53
2023-05-05T14:43:47.429Z,2.67
2023-05-05T14:46:22.634Z,2.47
2023-05-05T14:48:56.575Z,3.15
2023-05-05T14:51:29.156Z,2.22
2023-05-05T14:54:28.419Z,2.35
2023-05-05T14:57:11.349Z,2.75
2023-05-05T14:59:45.497Z,2.50
2023-05-05T15:02:18.025Z,2.60
2023-05-05T15:04:50.931Z,2.40
2023-05-05T15:07:39.175Z,2.42
2023-05-05T15:10:19.148Z,2.38
2023-05-05T15:12:53.681Z,3.03
2023-05-05T15:15:26.305Z,3.28
2023-05-05T15:18:06.993Z,2.90
2023-05-05T15:21:11.617Z,2.78
2023-05-05T15:24:04.632Z,4.22
2023-05-05T15:26:43.508Z,2.70
2023-05-05T15:29:23.061Z,2.50
2023-05-05T15:31:52.823Z,2.47
2023-05-05T15:34:32.168Z,2.15
2023-05-05T15:37:12.166Z,2.45
2023-05-05T15:39:53.535Z,2.50
2023-05-05T15:42:27.052Z,2.83
2023-05-05T15:44:57.478Z,2.90
2023-05-05T15:47:30.449Z,2.58
2023-05-05T15:50:08.529Z,2.67
2023-05-05T15:53:40.750Z,2.72
2023-05-05T15:56:21.741Z,2.50
2023-05-05T15:59:14.152Z,2.53
2023-05-05T16:02:24.797Z,2.75
2023-05-05T16:05:00.266Z,2.58
2023-05-05T16:07:50.414Z,2.60
2023-05-05T16:10:31.234Z,2.42
2023-05-05T16:13:09.896Z,2.70
2023-05-05T16:15:42.857Z,2.28
2023-05-05T16:18:34.338Z,2.80
2023-05-05T16:21:20.074Z,2.90
2023-05-05T16:24:14.623Z,2.22
2023-05-05T16:26:50.037Z,2.30
2023-05-05T16:29:27.039Z,2.83
2023-05-05T16:31:59.949Z,2.25
2023-05-05T16:35:15.379Z,2.67
2023-05-05T16:38:42.551Z,3.10
2023-05-05T16:41:31.236Z,3.00
2023-05-05T16:44:20.202Z,3.65
2023-05-05T16:46:58.852Z,4.15
2023-05-05T16:49:37.186Z,3.65
2023-05-05T16:52:10.629Z,5.32
2023-05-05T16:54:46.083Z,4.40
2023-05-05T16:57:33.010Z,4.13
2023-05-05T17:00:28.676Z,4.30
2023-05-05T17:03:01.681Z,4.45
2023-05-05T17:06:18.720Z,4.07
2023-05-05T17:08:57.687Z,4.57
2023-05-05T17:11:38.956Z,5.13
2023-05-05T17:14:44.754Z,5.72
2023-05-05T17:17:35.215Z,5.17
2023-05-05T17:21:17.006Z,5.25
2023-05-05T17:32:15.931Z,5.50
2023-05-05T17:35:16.414Z,5.40
2023-05-05T17:37:43.181Z,5.45
2023-05-05T17:40:10.112Z,4.85
2023-05-05T17:42:38.227Z,6.25
2023-05-05T17:45:05.437Z,6.03
2023-05-05T17:47:32.489Z,6.07
2023-05-05T17:49:59.513Z,6.38
2023-05-05T17:52:26.301Z,10.75
2023-05-05T17:54:52.998Z,10.07
2023-05-05T17:57:22.961Z,9.07
2023-05-05T17:59:50.360Z,8.32
2023-05-05T18:02:17.298Z,7.88
2023-05-05T18:04:44.028Z,7.88
2023-05-05T18:07:12.246Z,6.60
2023-05-05T18:09:39.116Z,7.82
2023-05-05T18:12:07.587Z,8.55
2023-05-05T18:14:34.439Z,7.20
2023-05-05T18:17:01.327Z,7.18
2023-05-05T18:19:28.132Z,6.93
2023-05-05T18:21:54.933Z,7.50
2023-05-05T18:24:21.942Z,6.88
2023-05-05T18:26:50.909Z,6.90
2023-05-05T18:29:19.304Z,8.40
2023-05-05T18:31:48.554Z,8.30
2023-05-05T18:34:16.655Z,7.65
2023-05-05T18:36:43.441Z,7.35
2023-05-05T18:39:10.187Z,7.32
2023-05-05T18:41:37.107Z,7.28
2023-05-05T18:44:03.932Z,6.90
2023-05-05T18:46:30.777Z,6.72
2023-05-05T18:48:57.632Z,7.68
2023-05-05T18:51:24.534Z,6.95
2023-05-05T18:53:51.302Z,7.55
2023-05-05T18:56:18.119Z,8.05
2023-05-05T18:58:44.879Z,7.82
2023-05-05T19:01:11.940Z,6.82
2023-05-05T19:03:38.886Z,7.80
2023-05-05T19:06:06.278Z,8.25
2023-05-05T19:08:33.224Z,7.68
2023-05-05T19:11:00.038Z,7.18
2023-05-05T19:13:26.897Z,7.20
2023-05-05T19:15:54.958Z,7.18
2023-05-05T19:18:21.838Z,8.60
2023-05-05T19:20:48.623Z,7.00
2023-05-05T19:23:17.403Z,7.68
2023-05-05T19:25:44.536Z,8.77
2023-05-05T19:28:12.005Z,7.40
2023-05-05T19:30:38.915Z,7.82
2023-05-05T19:33:06.260Z,7.68
2023-05-05T19:35:35.802Z,7.72
2023-05-05T19:38:02.577Z,8.20
2023-05-05T19:40:29.292Z,8.50
2023-05-05T19:42:56.102Z,9.88
2023-05-05T19:45:23.002Z,12.65
2023-05-05T19:47:49.737Z,9.13
2023-05-05T19:50:16.527Z,8.02
2023-05-05T19:52:43.201Z,8.85
2023-05-05T19:55:13.286Z,8.00
2023-05-05T19:57:40.512Z,9.95
2023-05-05T20:00:10.464Z,10.00
2023-05-05T20:02:37.632Z,10.70
2023-05-05T20:05:04.728Z,10.57
2023-05-05T20:07:31.519Z,9.90
2023-05-05T20:09:58.724Z,7.70
2023-05-05T20:12:25.731Z,9.48
2023-05-05T20:14:52.688Z,8.95
2023-05-05T20:17:21.312Z,9.73
2023-05-05T20:19:48.199Z,8.90
2023-05-05T20:22:15.009Z,11.93
2023-05-05T20:24:41.915Z,12.98
2023-05-05T20:27:08.641Z,13.00
2023-05-05T20:29:35.357Z,12.93
2023-05-05T20:32:02.103Z,13.15
2023-05-05T20:34:29.018Z,12.52
2023-05-05T20:36:56.624Z,12.40
2023-05-05T20:39:23.494Z,11.65
2023-05-05T20:41:50.173Z,11.18
2023-05-05T20:44:17.233Z,13.32
2023-05-05T20:46:44.326Z,10.70
2023-05-05T20:49:11.062Z,9.75
2023-05-05T20:51:37.859Z,10.32
2023-05-05T20:54:05.016Z,9.77
2023-05-05T20:56:31.851Z,10.07
2023-05-05T20:58:58.616Z,8.82
2023-05-05T21:01:25.442Z,9.73
2023-05-05T21:03:52.692Z,9.23
2023-05-05T21:06:19.609Z,10.10
2023-05-05T21:08:47.144Z,8.88
2023-05-05T21:11:14.026Z,9.27
2023-05-05T21:13:40.863Z,9.45
2023-05-05T21:16:07.872Z,9.23
2023-05-05T21:18:34.661Z,8.43
2023-05-05T21:21:01.593Z,9.20
2023-05-05T21:23:28.431Z,8.63
2023-05-05T21:25:55.557Z,9.20
2023-05-05T21:28:22.285Z,8.95
2023-05-05T21:31:10.316Z,8.90
2023-05-05T21:33:38.037Z,9.90
2023-05-05T21:36:06.190Z,9.70
2023-05-05T21:38:33.006Z,10.63
2023-05-05T21:40:59.759Z,10.32
2023-05-05T21:43:28.543Z,10.45
2023-05-05T21:46:00.131Z,9.55
2023-05-05T21:48:27.295Z,9.88
2023-05-05T21:50:54.716Z,10.15
2023-05-05T21:53:21.670Z,9.68
2023-05-05T21:55:48.600Z,9.90
2023-05-05T21:58:16.401Z,9.63
2023-05-05T22:00:43.201Z,9.93
2023-05-05T22:03:10.210Z,10.20
2023-05-05T22:05:37.009Z,9.38
2023-05-05T22:08:03.981Z,9.88
2023-05-05T22:10:30.984Z,11.50
2023-05-05T22:12:58.247Z,10.27
2023-05-05T22:15:27.709Z,9.40
2023-05-05T22:17:56.926Z,9.90
2023-05-05T22:20:23.820Z,10.02
2023-05-05T22:22:51.046Z,10.90
2023-05-05T22:25:18.012Z,10.77
2023-05-05T22:27:45.492Z,10.13
2023-05-05T22:30:12.914Z,11.63
2023-05-05T22:32:40.931Z,12.20
2023-05-05T22:35:09.370Z,11.23
2023-05-05T22:37:36.544Z,12.93
2023-05-05T22:40:03.702Z,12.98
2023-05-05T22:42:30.970Z,13.52
2023-05-05T22:44:57.928Z,12.18
2023-05-05T22:47:24.742Z,12.27
2023-05-05T22:49:51.631Z,11.65
2023-05-05T22:52:18.946Z,12.35
2023-05-05T22:54:45.850Z,11.75
2023-05-05T22:57:12.675Z,13.63
2023-05-05T22:59:39.486Z,14.65
2023-05-05T23:02:06.274Z,16.33
2023-05-05T23:04:33.391Z,14.50
2023-05-05T23:07:00.187Z,15.88
2023-05-05T23:09:26.961Z,14.98
2023-05-05T23:11:53.757Z,15.38
2023-05-05T23:14:20.567Z,15.48
2023-05-05T23:16:47.326Z,15.65
2023-05-05T23:19:14.132Z,15.07
2023-05-05T23:21:52.130Z,14.90
2023-05-05T23:24:19.908Z,16.63
2023-05-05T23:26:46.665Z,16.38
2023-05-05T23:29:13.514Z,16.98
2023-05-05T23:31:40.336Z,16.50
2023-05-05T23:34:07.056Z,17.63
2023-05-05T23:36:33.828Z,16.48
2023-05-05T23:39:00.609Z,16.23
2023-05-05T23:41:27.404Z,15.57
2023-05-05T23:43:54.127Z,16.92
2023-05-05T23:46:20.928Z,18.67
2023-05-05T23:48:47.771Z,16.85
2023-05-05T23:51:14.821Z,17.38
2023-05-05T23:53:41.622Z,17.60
2023-05-05T23:56:08.403Z,18.40
2023-05-05T23:58:35.176Z,17.58
